• Join FlightAware (Why Join?)
  • Login
  • US Flag 
06:07PM EDT


 

Airport Tracker/Info


-or-


 

Live Flight TrackerFlight Track Log ✈ ASQ6171 ✈ 09-May-2013 ✈ CYOW - KORD

Flight Track Log - Related Links

Times and Time Zones

All times are in EDT time to prevent confusion due to time zone crossing. See the ASQ6171 flight status page for this flight to view local times or setup timezone preferences in your user account.

Time Position Orientation Groundspeed Altitude Reporting Facility
EDT Latitude Longitude Course Direction KTS MPH feet Rate Location/Type
06:02AM 45.3167 -75.6167 251° West 170 196 1,400  Level Montreal Center
06:03AM 45.3500 -75.5667 47° Northeast 200 230 3,400 2,220 Climbing Montreal Center
06:04AM 45.4000 -75.5333 25° Northeast 230 265 5,900 2,100 Climbing Montreal Center
06:05AM 45.4000 -75.6333 270° West 240 276 7,600 1,800 Climbing Montreal Center
06:06AM 45.1027 -76.4924 251° West  Level FlightAware Approximate
06:06AM 45.4167 -75.7500 282° West 280 322 9,500  Level Montreal Center
06:07AM 45.0696 -76.6315 251° West  Level FlightAware Approximate
06:07AM 45.4000 -75.8500 257° West 290 334 11,000  Level Montreal Center
06:08AM 45.4000 -76.0000 270° West 320 368 12,800 1,800 Climbing Montreal Center
06:09AM 45.3833 -76.1167 259° West 320 368 14,700 1,860 Climbing Montreal Center
06:10AM 45.3667 -76.2500 260° West 320 368 16,600 1,740 Climbing Montreal Center
06:11AM 45.3500 -76.3667 259° West 320 368 18,200 1,680 Climbing Montreal Center
06:12AM 45.3333 -76.5000 260° West 330 380 20,000 1,740 Climbing Montreal Center
06:13AM 45.3000 -76.6167 248° West 330 380 21,700 1,680 Climbing Montreal Center
06:14AM 45.2667 -76.7500 250° West 330 380 23,400 1,560 Climbing Montreal Center
06:15AM 45.2333 -76.8667 248° West 340 391 24,900 1,380 Climbing Montreal Center
06:16AM 45.2167 -76.9833 259° West 340 391 26,200 1,260 Climbing Montreal Center
06:17AM 45.1833 -77.1333 253° West 350 403 27,500 1,200 Climbing Montreal Center
06:18AM 45.1500 -77.2500 248° West 350 403 28,600 900 Climbing Montreal Center
06:19AM 45.1167 -77.4000 253° West 360 414 29,300 660 Climbing Montreal Center
06:20AM 45.0833 -77.5333 251° West 380 437 30,000 600 Climbing Montreal Center
06:21AM 45.0500 -77.7000 254° West 410 472 30,600 600 Climbing Montreal Center
06:21AM 45.0333 -77.7167 215° Southwest 410 472 30,900 900 Climbing Toronto Center
06:22AM 45.0000 -77.8833 254° West 410 472 31,900 900 Climbing Toronto Center
06:23AM 44.9500 -78.0333 245° Southwest 420 483 32,800 900 Climbing Toronto Center
06:24AM 44.9167 -78.1667 251° West 420 483 33,800 960 Climbing Toronto Center
06:25AM 44.8667 -78.3333 247° West 420 483 34,800 900 Climbing Toronto Center
06:26AM 44.8500 -78.5000 262° West 420 483 35,700 600 Climbing Toronto Center
06:27AM 44.8000 -78.6500 245° Southwest 420 483 36,000 180 Climbing Toronto Center
06:28AM 44.7667 -78.7667 248° West 420 483 36,000  Level Montreal Center
06:29AM 44.7167 -78.9333 247° West 430 495 36,000  Level Montreal Center
06:29AM 44.7000 -78.9500 215° Southwest 430 495 36,000  Level Toronto Center
06:30AM 44.6500 -79.1167 247° West 430 495 36,000  Level Toronto Center
06:31AM 44.6000 -79.2500 242° Southwest 430 495 36,000  Level Toronto Center
06:32AM 44.5333 -79.4000 238° Southwest 430 495 36,000  Level Toronto Center
06:33AM 44.4833 -79.5667 247° West 430 495 36,000  Level Toronto Center
06:34AM 44.4333 -79.7000 242° Southwest 430 495 36,000  Level Toronto Center
06:35AM 44.3667 -79.8500 238° Southwest 430 495 36,000  Level Toronto Center
06:36AM 44.3167 -80.0000 245° Southwest 430 495 36,000  Level Toronto Center
06:37AM 44.2667 -80.1500 245° Southwest 430 495 36,000  Level Toronto Center
06:38AM 44.2000 -80.3000 238° Southwest 430 495 36,000  Level Toronto Center
06:39AM 44.1500 -80.4500 245° Southwest 430 495 36,000  Level Toronto Center
06:40AM 44.1000 -80.5833 242° Southwest 430 495 36,000  Level Toronto Center
06:41AM 44.0333 -80.7500 241° Southwest 430 495 36,000  Level Toronto Center
06:42AM 43.9667 -80.8833 235° Southwest 430 495 36,000  Level Toronto Center
06:43AM 43.9167 -81.0167 243° Southwest 420 483 36,000  Level Toronto Center
06:44AM 43.8667 -81.1833 247° West 410 472 36,000  Level Toronto Center
06:45AM 43.8167 -81.3000 239° Southwest 410 472 36,000  Level Toronto Center
06:46AM 43.7500 -81.4333 235° Southwest 400 460 36,000  Level Toronto Center
06:47AM 43.7000 -81.5667 243° Southwest 400 460 36,000  Level Toronto Center
06:48AM 43.6500 -81.7000 243° Southwest 400 460 36,000  Level Toronto Center
06:49AM 43.6000 -81.8500 245° Southwest 410 472 36,000  Level Toronto Center
06:50AM 43.5333 -81.9833 235° Southwest 410 472 36,000  Level Toronto Center
06:51AM 43.4833 -82.1333 245° Southwest 410 472 36,000  Level Toronto Center
06:51AM 43.4678 -82.2050 253° West 414 476 36,000  Level Cleveland Center
06:52AM 43.4117 -82.3436 241° Southwest 414 476 36,000  Level Cleveland Center
06:53AM 43.3667 -82.4000 222° Southwest 410 472 36,000  Level Toronto Center
06:54AM 43.3167 -82.5500 245° Southwest 410 472 36,000 -300 Level Toronto Center
06:55AM 43.2500 -82.6833 236° Southwest 410 472 35,400 -540 Descending Toronto Center
06:55AM 43.2442 -82.7547 264° West 414 476 35,200 -540 Descending Cleveland Center
06:56AM 43.2017 -82.8986 248° West 414 476 34,600 -600 Descending Cleveland Center
06:57AM 43.1611 -83.0508 250° West 414 476 34,000 -600 Descending Cleveland Center
06:58AM 43.1203 -83.2000 249° West 414 476 33,500 -600 Descending Cleveland Center
06:59AM 43.0794 -83.3489 249° West 421 484 32,900 -600 Descending Cleveland Center
07:00AM 43.0403 -83.4978 250° West 426 490 32,400 -480 Descending Cleveland Center
07:01AM 42.9969 -83.6433 248° West 426 490 32,000 -240 Descending Cleveland Center
07:02AM 42.9594 -83.7919 251° West 426 490 32,000  Level Cleveland Center
07:03AM 42.9469 -83.9444 264° West 413 475 32,000  Level Cleveland Center
07:04AM 42.9319 -84.0969 262° West 407 468 32,000  Level Cleveland Center
07:06AM 42.9056 -84.3694 263° West 408 470 32,000  Level Chicago Center
07:07AM 42.8897 -84.5247 262° West 412 474 32,000  Level Chicago Center
07:08AM 42.8747 -84.6786 262° West 411 473 32,000  Level Chicago Center
07:09AM 42.8578 -84.8347 262° West 417 480 32,000  Level Chicago Center
07:10AM 42.8414 -84.9900 262° West 414 476 32,000  Level Chicago Center
07:11AM 42.8256 -85.1461 262° West 416 479 32,000  Level Chicago Center
07:12AM 42.8083 -85.3014 261° West 416 479 32,000  Level Chicago Center
07:13AM 42.7908 -85.4578 261° West 417 480 32,000 -780 Level Chicago Center
07:14AM 42.7661 -85.6122 258° West 417 480 30,500 -2,100 Descending Chicago Center
07:15AM 42.7386 -85.7644 256° West 413 475 27,800 -2,820 Descending Chicago Center
07:16AM 42.7111 -85.9133 256° West 404 465 24,800 -2,820 Descending Chicago Center
07:17AM 42.6842 -86.0631 256° West 404 465 22,100 -2,280 Descending Chicago Center
07:19AM 42.6578 -86.2061 256° West 392 451 20,200 -1,080 Descending Chicago Center
07:20AM 42.6261 -86.3728 256° West 380 437 20,000 -120 Descending Chicago Center
07:21AM 42.6003 -86.5103 256° West 377 434 20,000 -1,140 Level Chicago Center
07:22AM 42.5747 -86.6478 256° West 375 432 17,700 -2,400 Descending Chicago Center
07:23AM 42.5489 -86.7786 255° West 365 420 15,200 -2,400 Descending Chicago Center
07:24AM 42.5139 -86.9011 249° West 354 407 12,800 -2,100 Descending Chicago Center
07:25AM 42.4831 -87.0167 250° West 336 387 11,000 -1,440 Descending Chicago Center
07:26AM 42.4531 -87.1192 248° West 301 346 9,900 -1,020 Descending Chicago Center
07:27AM 42.4083 -87.1994 233° Southwest 279 321 9,000 -480 Descending Chicago Center
07:28AM 42.3450 -87.2567 214° Southwest 278 320 9,000 -420 Level Chicago Center
07:29AM 42.2811 -87.3164 215° Southwest 273 314 8,200 -1,080 Descending Chicago Center
07:30AM 42.2119 -87.3803 214° Southwest 255 293 6,900 -1,140 Descending Chicago Center
07:31AM 42.1544 -87.4358 216° Southwest 256 295 6,000 -1,020 Descending Chicago Center
07:32AM 42.1000 -87.4833 213° Southwest 259 298 5,000 -1,020 Descending Chicago TRACON
07:33AM 42.0500 -87.5500 225° Southwest 255 293 4,100 -540 Descending Chicago TRACON
07:34AM 42.0000 -87.6167 225° Southwest 249 287 4,000 -420 Descending Chicago TRACON
07:35AM 41.9833 -87.7000 255° West 244 281 3,300 -900 Descending Chicago TRACON
07:36AM 41.9833 -87.7833 270° West 189 217 2,200 -900 Descending Chicago TRACON
07:37AM 41.9833 -87.8333 270° West 140 161 1,500 -720 Descending Chicago TRACON
07:40AM 41.9667 -87.9000 217° Southwest  Level FlightAware Approximate